Time;durP1;ratioP1;P1;durP2;ratioP2;P2;SDS_P1;SDS_P2;PMS_P1;PMS_P2;Temp;Humidity;BMP_temperature;BMP_pressure;BME280_temperature;BME280_humidity;BME280_pressure;Samples;Min_cycle;Max_cycle;Signal;HPM_P1;HPM_P2
2022/05/17 00:02:09;;;;;;;154.65;145.77;;;14.90;99.90;;;;;;5113634;28;20040;-60
2022/05/17 00:04:35;;;;;;;160.32;151.23;;;14.90;99.90;;;;;;5122541;27;20115;-60
2022/05/17 00:07:03;;;;;;;156.88;148.45;;;15.00;99.90;;;;;;5134922;27;20082;-60
2022/05/17 00:09:29;;;;;;;148.60;140.10;;;14.90;99.90;;;;;;5134933;27;20446;-60
2022/05/17 00:11:56;;;;;;;;;;;14.80;99.90;;;;;;5133281;27;19919;-60
2022/05/17 00:14:21;;;;;;;;;;;14.70;99.90;;;;;;5133730;27;19925;-60
2022/05/17 00:16:47;;;;;;;;;;;14.70;99.90;;;;;;5133196;27;20006;-60
2022/05/17 00:19:16;;;;;;;;;;;14.60;99.90;;;;;;5111425;28;20346;-60
2022/05/17 00:21:42;;;;;;;;;;;14.60;99.90;;;;;;5113057;28;19919;-59
2022/05/17 00:24:08;;;;;;;;;;;14.70;99.90;;;;;;5112698;28;20361;-60
2022/05/17 00:26:34;;;;;;;;;;;14.60;99.90;;;;;;5113145;28;20025;-60
2022/05/17 00:29:00;;;;;;;;;;;14.60;99.90;;;;;;5114464;27;19974;-60
2022/05/17 00:31:26;;;;;;;;;;;14.60;99.90;;;;;;5133015;27;19923;-60
2022/05/17 00:33:53;;;;;;;;;;;14.60;99.90;;;;;;5133555;27;19919;-60
2022/05/17 00:36:19;;;;;;;;;;;14.50;99.90;;;;;;5111155;28;19923;-60
2022/05/17 00:38:45;;;;;;;;;;;14.50;99.90;;;;;;5124119;27;19919;-60
2022/05/17 00:41:10;;;;;;;;;;;14.40;99.90;;;;;;5133186;27;20353;-60
2022/05/17 00:46:23;;;;;;;;;;;14.40;99.90;;;;;;5132732;27;20014;-60
2022/05/17 00:48:49;;;;;;;;;;;14.30;99.90;;;;;;5132933;27;20009;-60
2022/05/17 00:51:16;;;;;;;;;;;14.40;99.90;;;;;;5133102;27;19919;-59
2022/05/17 00:53:42;;;;;;;;;;;14.30;99.90;;;;;;5132321;27;19921;-59
2022/05/17 00:56:12;;;;;;;;;;;14.20;99.90;;;;;;5133041;27;19919;-60
2022/05/17 00:58:46;;;;;;;;;;;14.20;99.90;;;;;;5132953;27;20042;-60
2022/05/17 01:01:13;;;;;;;;;;;14.20;99.90;;;;;;5132352;27;20351;-60
2022/05/17 01:03:43;;;;;;;;;;;14.20;99.90;;;;;;5127617;27;19920;-59
2022/05/17 01:06:09;;;;;;;;;;;14.20;99.90;;;;;;5110369;28;19916;-59
2022/05/17 01:08:35;;;;;;;;;;;14.20;99.90;;;;;;5094692;28;20147;-59
2022/05/17 01:11:01;;;;;;;;;;;14.10;99.90;;;;;;5113911;28;20037;-59
2022/05/17 01:16:11;;;;;;;;;;;14.10;99.90;;;;;;5132929;27;20103;-59
2022/05/17 01:18:38;;;;;;;;;;;14.10;99.90;;;;;;5132721;27;19920;-59
2022/05/17 01:21:04;;;;;;;;;;;14.00;99.90;;;;;;5131610;27;19926;-60
2022/05/17 01:23:30;;;;;;;78.28;73.43;;;14.00;99.90;;;;;;5133437;27;19919;-60
2022/05/17 01:25:56;;;;;;;103.25;96.85;;;14.00;99.90;;;;;;5133934;27;20489;-60
2022/05/17 01:28:27;;;;;;;95.85;89.70;;;14.00;99.90;;;;;;5132929;27;20077;-60
2022/05/17 01:30:54;;;;;;;81.22;75.55;;;14.10;99.90;;;;;;5114812;28;20051;-60
2022/05/17 01:33:21;;;;;;;69.22;63.55;;;14.00;99.90;;;;;;5115562;27;20054;-60
2022/05/17 01:35:48;;;;;;;70.30;65.30;;;14.00;99.90;;;;;;5132935;27;20104;-60
2022/05/17 01:38:14;;;;;;;71.40;66.32;;;13.90;99.90;;;;;;5133392;28;20078;-60
2022/05/17 01:40:40;;;;;;;89.13;82.43;;;13.90;99.90;;;;;;5133805;28;20047;-59
2022/05/17 01:43:07;;;;;;;90.07;83.10;;;13.80;99.90;;;;;;5132959;28;20573;-59
2022/05/17 01:45:33;;;;;;;86.72;81.00;;;13.90;99.90;;;;;;5133992;28;20035;-59
2022/05/17 01:47:59;;;;;;;80.60;74.70;;;13.80;99.90;;;;;;5133012;28;20504;-60
2022/05/17 01:50:25;;;;;;;80.35;74.93;;;13.80;99.90;;;;;;5132580;28;20082;-60
2022/05/17 01:52:51;;;;;;;87.47;81.60;;;13.80;99.90;;;;;;5133981;28;20043;-60
2022/05/17 01:55:17;;;;;;;89.75;82.97;;;13.70;99.90;;;;;;5133019;28;20043;-59
2022/05/17 01:57:42;;;;;;;92.20;86.15;;;13.70;99.90;;;;;;5133300;28;20043;-60
2022/05/17 02:00:11;;;;;;;95.38;88.90;;;13.70;99.90;;;;;;5133684;28;20108;-60
2022/05/17 02:02:37;;;;;;;89.20;83.70;;;13.70;99.90;;;;;;5132760;28;20115;-60
2022/05/17 02:05:05;;;;;;;88.78;82.20;;;13.70;99.90;;;;;;5132007;28;20059;-59
2022/05/17 02:07:30;;;;;;;87.40;81.65;;;13.60;99.90;;;;;;5133428;28;20404;-59
2022/05/17 02:09:56;;;;;;;;;;;13.60;99.90;;;;;;5131617;28;19923;-60
2022/05/17 02:12:22;;;;;;;;;;;13.60;99.90;;;;;;5131684;28;19971;-59
2022/05/17 02:14:47;;;;;;;;;;;13.60;99.90;;;;;;5131811;28;19919;-60
2022/05/17 02:17:13;;;;;;;;;;;13.60;99.90;;;;;;5131838;28;19920;-59
2022/05/17 02:19:39;;;;;;;;;;;13.50;99.90;;;;;;5131760;28;19930;-59
2022/05/17 02:22:04;;;;;;;;;;;13.50;99.90;;;;;;5132005;28;19965;-59
2022/05/17 02:24:30;;;;;;;;;;;13.40;99.90;;;;;;5131790;28;19971;-59
2022/05/17 02:26:56;;;;;;;;;;;13.30;99.90;;;;;;5132743;27;19959;-59
2022/05/17 02:29:25;;;;;;;;;;;13.30;99.90;;;;;;5135756;27;20265;-59
2022/05/17 02:31:51;;;;;;;;;;;13.30;99.90;;;;;;5134974;27;19920;-59
2022/05/17 02:34:18;;;;;;;;;;;13.30;99.90;;;;;;5135586;27;20520;-59
2022/05/17 02:36:45;;;;;;;;;;;13.40;99.90;;;;;;5136007;27;19922;-59
2022/05/17 02:39:11;;;;;;;;;;;13.40;99.90;;;;;;5134751;27;20509;-60
2022/05/17 02:41:37;;;;;;;;;;;13.20;99.90;;;;;;5135281;27;19926;-59
2022/05/17 02:44:02;;;;;;;;;;;13.40;99.90;;;;;;5135858;27;20135;-59
2022/05/17 02:46:29;;;;;;;;;;;13.30;99.90;;;;;;5134896;27;19919;-59
2022/05/17 02:48:55;;;;;;;;;;;13.30;99.90;;;;;;5134969;27;19919;-59
2022/05/17 02:51:20;;;;;;;;;;;13.40;99.90;;;;;;5135905;27;20143;-59
2022/05/17 02:53:46;;;;;;;;;;;13.30;99.90;;;;;;5134973;27;20067;-59
2022/05/17 02:56:12;;;;;;;;;;;13.30;99.90;;;;;;5135205;27;20063;-59
2022/05/17 02:58:38;;;;;;;;;;;13.30;99.90;;;;;;5134611;27;19938;-59
2022/05/17 03:01:04;;;;;;;;;;;13.30;99.90;;;;;;5135031;27;20078;-59
2022/05/17 03:03:30;;;;;;;;;;;13.30;99.90;;;;;;5135215;27;20355;-59
2022/05/17 03:05:56;;;;;;;;;;;13.20;99.90;;;;;;5115524;27;19926;-59
2022/05/17 03:08:22;;;;;;;;;;;13.20;99.90;;;;;;5134762;27;20064;-59
2022/05/17 03:10:48;;;;;;;;;;;13.20;99.90;;;;;;5135117;27;19919;-59
2022/05/17 03:13:14;;;;;;;;;;;13.10;99.90;;;;;;5134683;27;20361;-59
2022/05/17 03:15:40;;;;;;;;;;;13.00;99.90;;;;;;5112598;28;19967;-59
2022/05/17 03:18:06;;;;;;;;;;;13.00;99.90;;;;;;5114484;27;19967;-59
2022/05/17 03:20:32;;;;;;;134.17;126.30;;;13.00;99.90;;;;;;5114429;28;20389;-59
2022/05/17 03:22:58;;;;;;;139.27;131.80;;;13.20;99.90;;;;;;5115803;28;20040;-59
2022/05/17 03:25:24;;;;;;;133.57;126.10;;;12.80;99.90;;;;;;5113935;28;20052;-59
2022/05/17 03:27:51;;;;;;;121.50;114.77;;;12.70;99.90;;;;;;5113846;28;20036;-59
2022/05/17 03:30:17;;;;;;;118.97;111.65;;;12.70;99.90;;;;;;5121165;27;20388;-59
2022/05/17 03:32:43;;;;;;;114.43;107.97;;;12.70;99.90;;;;;;5135600;27;20138;-59
2022/05/17 03:35:09;;;;;;;112.20;105.15;;;12.70;99.90;;;;;;5135328;27;20051;-59
2022/05/17 03:37:36;;;;;;;108.72;102.13;;;12.50;99.90;;;;;;5135390;27;20129;-59
2022/05/17 03:40:04;;;;;;;112.07;105.55;;;12.60;99.90;;;;;;5135557;27;20377;-59
2022/05/17 03:42:30;;;;;;;113.28;106.28;;;12.60;99.90;;;;;;5134998;27;20477;-59
2022/05/17 03:44:56;;;;;;;107.93;101.28;;;12.60;99.90;;;;;;5135881;27;20051;-59
2022/05/17 03:47:22;;;;;;;114.03;107.45;;;12.60;99.90;;;;;;5135666;27;20039;-59
2022/05/17 03:49:48;;;;;;;107.30;101.63;;;12.60;99.90;;;;;;5134909;27;20047;-59
2022/05/17 03:52:14;;;;;;;98.43;92.13;;;12.50;99.90;;;;;;5135620;27;20073;-59
2022/05/17 03:54:47;;;;;;;96.95;90.80;;;12.50;99.90;;;;;;5134968;27;20047;-60
2022/05/17 03:57:13;;;;;;;108.53;101.88;;;12.50;99.90;;;;;;5134837;27;20499;-60
2022/05/17 03:59:39;;;;;;;98.90;92.65;;;12.60;99.90;;;;;;5135016;27;20054;-60
2022/05/17 04:02:05;;;;;;;110.97;104.47;;;12.50;99.90;;;;;;5134535;27;20051;-60
2022/05/17 04:04:32;;;;;;;89.95;83.93;;;12.60;99.90;;;;;;5135295;27;20115;-60
2022/05/17 04:06:59;;;;;;;83.07;77.97;;;12.60;99.90;;;;;;5135544;27;20049;-60
2022/05/17 04:09:25;;;;;;;102.38;96.30;;;12.60;99.90;;;;;;5133931;27;20129;-60
2022/05/17 04:11:50;;;;;;;94.78;89.10;;;12.60;99.90;;;;;;5134892;27;20092;-60
2022/05/17 04:14:16;;;;;;;89.57;83.80;;;12.70;99.90;;;;;;5135403;27;20668;-60
2022/05/17 04:16:42;;;;;;;86.43;80.32;;;12.70;99.90;;;;;;5134167;27;20039;-60
2022/05/17 04:19:09;;;;;;;101.68;95.68;;;12.70;99.90;;;;;;5135152;27;20047;-60
2022/05/17 04:21:36;;;;;;;77.93;72.57;;;12.80;99.90;;;;;;5135112;27;20039;-60
2022/05/17 04:24:02;;;;;;;76.82;71.45;;;12.90;99.90;;;;;;5134485;27;20100;-60
2022/05/17 04:26:27;;;;;;;78.40;73.13;;;13.00;99.90;;;;;;5112470;28;20111;-60
2022/05/17 04:28:55;;;;;;;84.13;78.60;;;13.00;99.90;;;;;;5114402;28;20564;-60
2022/05/17 04:31:21;;;;;;;80.65;74.82;;;13.00;99.90;;;;;;5115357;27;20077;-60
2022/05/17 04:33:47;;;;;;;82.95;77.07;;;13.00;99.90;;;;;;5116701;27;20381;-60
2022/05/17 04:36:13;;;;;;;81.25;76.22;;;13.10;99.90;;;;;;5116294;27;20037;-60
2022/05/17 04:38:38;;;;;;;77.30;72.30;;;13.20;99.90;;;;;;5133351;27;20051;-60
2022/05/17 04:41:04;;;;;;;87.90;82.30;;;13.20;99.90;;;;;;5127840;27;20122;-60
2022/05/17 04:43:30;;;;;;;85.20;79.47;;;13.30;99.90;;;;;;5125611;27;20054;-60
2022/05/17 04:45:57;;;;;;;95.15;89.40;;;13.30;99.90;;;;;;5127999;27;20048;-60
2022/05/17 04:48:24;;;;;;;110.82;104.25;;;13.40;99.90;;;;;;5113692;28;20485;-61
2022/05/17 04:50:51;;;;;;;142.77;135.60;;;13.40;99.90;;;;;;5113397;28;20095;-60
2022/05/17 04:53:17;;;;;;;156.65;148.10;;;13.50;99.90;;;;;;5123639;27;20134;-60
2022/05/17 04:55:43;;;;;;;158.02;149.77;;;13.50;99.90;;;;;;5115974;27;20047;-60
2022/05/17 04:58:09;;;;;;;130.23;123.45;;;13.60;99.90;;;;;;5134001;27;20385;-61
2022/05/17 05:00:36;;;;;;;130.45;123.72;;;13.70;99.90;;;;;;5134146;27;20035;-60
2022/05/17 05:03:02;;;;;;;132.57;125.00;;;13.80;99.90;;;;;;5133951;27;20043;-60
2022/05/17 05:05:29;;;;;;;104.95;98.85;;;13.90;99.90;;;;;;5133837;27;20079;-61
2022/05/17 05:07:55;;;;;;;110.13;103.05;;;14.00;99.90;;;;;;5115708;27;20492;-60
2022/05/17 05:10:21;;;;;;;65.10;60.70;;;14.10;99.90;;;;;;5132065;27;20050;-60
2022/05/17 05:12:47;;;;;;;124.75;117.68;;;14.20;99.90;;;;;;5113179;28;20048;-60
2022/05/17 05:15:14;;;;;;;85.65;80.13;;;14.30;99.90;;;;;;5096080;27;20092;-60
2022/05/17 05:17:40;;;;;;;154.95;147.25;;;14.40;99.90;;;;;;5095302;28;20052;-60
2022/05/17 05:20:11;;;;;;;135.07;128.27;;;14.60;99.90;;;;;;5125744;27;20054;-61
2022/05/17 05:22:37;;;;;;;70.43;66.43;;;14.60;99.90;;;;;;5133759;27;20091;-60
2022/05/17 05:25:04;;;;;;;83.70;78.63;;;14.70;99.90;;;;;;5107150;28;20051;-60
2022/05/17 05:27:32;;;;;;;100.88;95.18;;;14.90;99.90;;;;;;5113080;28;20087;-60
2022/05/17 05:30:00;;;;;;;113.28;107.38;;;15.00;99.90;;;;;;5129580;27;20438;-60
2022/05/17 05:32:25;;;;;;;114.25;107.85;;;15.10;99.90;;;;;;5123971;27;20081;-60
2022/05/17 05:34:51;;;;;;;102.15;96.10;;;15.20;99.90;;;;;;5112671;28;20048;-60
2022/05/17 05:37:17;;;;;;;105.82;99.93;;;15.20;99.90;;;;;;5113744;27;20028;-61
2022/05/17 05:39:43;;;;;;;105.70;99.68;;;15.30;99.90;;;;;;5133225;27;20100;-60
2022/05/17 05:42:09;;;;;;;107.90;102.20;;;15.40;99.90;;;;;;5133116;27;20081;-60
2022/05/17 05:44:35;;;;;;;107.47;101.85;;;15.40;99.90;;;;;;5133854;28;20047;-60
2022/05/17 05:47:01;;;;;;;115.75;110.03;;;15.50;99.90;;;;;;5133160;28;20043;-60
2022/05/17 05:49:27;;;;;;;116.78;110.60;;;15.50;99.90;;;;;;5132844;28;20051;-60
2022/05/17 05:51:53;;;;;;;114.13;107.30;;;15.50;99.90;;;;;;5133435;28;20117;-60
2022/05/17 05:54:18;;;;;;;125.75;118.93;;;15.60;99.90;;;;;;5114023;28;20059;-60
2022/05/17 05:56:44;;;;;;;114.55;108.75;;;15.70;99.90;;;;;;5114880;28;20086;-60
2022/05/17 05:59:10;;;;;;;136.30;129.15;;;15.80;99.90;;;;;;5133755;28;20051;-60
2022/05/17 06:01:36;;;;;;;126.22;119.30;;;15.80;99.90;;;;;;5135236;27;20146;-60
2022/05/17 06:04:02;;;;;;;99.15;94.18;;;16.00;99.90;;;;;;5137460;27;20115;-60
2022/05/17 06:06:29;;;;;;;98.55;93.55;;;16.10;99.90;;;;;;5121967;27;20101;-60
2022/05/17 06:08:56;;;;;;;95.97;90.63;;;16.20;99.90;;;;;;5116247;28;20280;-61
2022/05/17 06:11:22;;;;;;;80.82;76.32;;;16.30;99.90;;;;;;5117038;28;20050;-61
2022/05/17 06:13:48;;;;;;;82.55;77.68;;;16.40;99.90;;;;;;5134842;27;20039;-60
2022/05/17 06:16:14;;;;;;;72.88;68.43;;;16.50;99.90;;;;;;5118411;27;20111;-60
2022/05/17 06:18:40;;;;;;;94.18;89.18;;;16.70;99.90;;;;;;5136953;27;20099;-61
2022/05/17 06:21:06;;;;;;;84.22;79.60;;;16.70;99.90;;;;;;5136797;27;20046;-61
2022/05/17 06:23:33;;;;;;;75.22;70.97;;;16.70;99.90;;;;;;5117774;27;20070;-61
2022/05/17 06:25:59;;;;;;;72.47;68.20;;;16.70;99.90;;;;;;5137008;27;20039;-61
2022/05/17 06:28:28;;;;;;;85.43;80.82;;;16.70;99.90;;;;;;5136684;27;20046;-60
2022/05/17 06:30:54;;;;;;;73.38;68.75;;;16.70;99.90;;;;;;5116772;27;20446;-60
2022/05/17 06:33:21;;;;;;;85.95;81.22;;;16.80;99.90;;;;;;5136759;27;20035;-61
2022/05/17 06:35:48;;;;;;;74.43;70.03;;;16.90;99.90;;;;;;5137096;27;20047;-60
2022/05/17 06:38:16;;;;;;;45.22;42.10;;;17.00;99.90;;;;;;5135442;27;20512;-61
2022/05/17 06:40:42;;;;;;;55.08;51.50;;;;;;;;;;5137227;27;20040;-60
2022/05/17 06:43:09;;;;;;;53.63;50.42;;;17.20;99.90;;;;;;5137321;27;20088;-61
2022/05/17 06:45:35;;;;;;;65.57;61.65;;;17.30;99.90;;;;;;5135902;27;20058;-60
2022/05/17 06:48:02;;;;;;;65.38;61.28;;;17.40;99.90;;;;;;5136230;27;20488;-61
2022/05/17 06:50:30;;;;;;;80.45;76.10;;;17.40;99.90;;;;;;5137105;27;20108;-60
2022/05/17 06:52:56;;;;;;;77.57;73.45;;;17.50;99.90;;;;;;5117788;27;20050;-60
2022/05/17 06:55:22;;;;;;;75.30;71.20;;;17.50;99.90;;;;;;5136703;27;20055;-60
2022/05/17 06:57:50;;;;;;;90.38;85.53;;;17.60;99.90;;;;;;5135829;27;20047;-60
2022/05/17 07:00:18;;;;;;;70.57;66.60;;;17.70;99.90;;;;;;5114701;27;20058;-60
2022/05/17 07:02:46;;;;;;;51.33;48.30;;;17.80;99.90;;;;;;5136189;27;20426;-61
2022/05/17 07:05:12;;;;;;;42.53;39.28;;;17.90;99.90;;;;;;5135235;27;20179;-60
2022/05/17 07:07:38;;;;;;;47.45;44.55;;;17.90;99.90;;;;;;5135970;27;20122;-60
2022/05/17 07:13:09;;;;;;;41.58;38.95;;;17.90;99.90;;;;;;5134612;27;20075;-61
2022/05/17 07:15:37;;;;;;;46.25;43.38;;;18.00;99.90;;;;;;5130710;27;20401;-60
2022/05/17 07:18:04;;;;;;;65.43;61.45;;;18.00;99.90;;;;;;5097376;28;20052;-60
2022/05/17 07:20:30;;;;;;;36.10;33.75;;;18.10;99.90;;;;;;5131263;27;20118;-60
2022/05/17 07:22:56;;;;;;;56.65;53.42;;;18.20;99.90;;;;;;5115007;27;20120;-60
2022/05/17 07:25:21;;;;;;;42.35;39.33;;;18.20;99.90;;;;;;5135979;27;20483;-60
2022/05/17 07:27:48;;;;;;;49.60;46.45;;;18.30;99.90;;;;;;5131568;27;20110;-61
2022/05/17 07:30:14;;;;;;;46.83;43.75;;;18.30;99.90;;;;;;5135461;27;20103;-60
2022/05/17 07:32:40;;;;;;;52.92;49.70;;;18.40;99.90;;;;;;5114072;27;20504;-61
2022/05/17 07:35:07;;;;;;;78.70;74.63;;;18.40;99.90;;;;;;5134724;27;20035;-60
2022/05/17 07:37:33;;;;;;;63.78;59.78;;;18.40;99.90;;;;;;5113698;27;20473;-60
2022/05/17 07:39:59;;;;;;;57.42;53.90;;;18.40;99.90;;;;;;5134334;27;20039;-60
2022/05/17 07:42:25;;;;;;;78.63;74.50;;;18.40;99.90;;;;;;5133860;27;20055;-60
2022/05/17 07:44:51;;;;;;;73.40;69.53;;;18.50;99.90;;;;;;5135133;27;20042;-60
2022/05/17 07:47:17;;;;;;;58.78;55.20;;;18.50;99.90;;;;;;5134577;27;20046;-60
2022/05/17 07:49:43;;;;;;;60.85;57.72;;;18.60;99.90;;;;;;5134112;27;20043;-61
2022/05/17 07:52:10;;;;;;;59.72;55.88;;;18.80;99.90;;;;;;5135065;27;20122;-60
2022/05/17 07:54:37;;;;;;;72.57;68.55;;;18.70;99.90;;;;;;5134950;27;20107;-61
2022/05/17 07:57:05;;;;;;;72.40;68.25;;;18.70;99.90;;;;;;5135094;27;20374;-61
2022/05/17 07:59:31;;;;;;;58.47;55.17;;;18.80;99.90;;;;;;5134997;27;20464;-61
2022/05/17 08:01:56;;;;;;;65.45;61.50;;;18.90;99.90;;;;;;5134161;27;20066;-60
2022/05/17 08:04:23;;;;;;;76.25;72.38;;;19.00;99.90;;;;;;5134632;27;20104;-61
2022/05/17 08:06:50;;;;;;;70.00;65.95;;;19.00;99.90;;;;;;5134589;27;20043;-61
2022/05/17 08:09:16;;;;;;;59.88;56.63;;;19.00;99.90;;;;;;5134606;27;20039;-61
2022/05/17 08:11:43;;;;;;;67.55;63.45;;;19.10;99.90;;;;;;5135527;27;20071;-61
2022/05/17 08:14:09;;;;;;;62.40;58.72;;;19.00;99.90;;;;;;5133857;27;20540;-61
2022/05/17 08:16:37;;;;;;;55.83;52.53;;;19.00;99.90;;;;;;5133522;27;20047;-61
2022/05/17 08:19:03;;;;;;;61.25;57.55;;;19.10;99.90;;;;;;5134821;27;20492;-61
2022/05/17 08:21:29;;;;;;;78.10;73.93;;;19.00;99.90;;;;;;5118138;27;20050;-61
2022/05/17 08:23:54;;;;;;;53.63;50.50;;;19.10;99.90;;;;;;5113727;28;20084;-61
2022/05/17 08:29:05;;;;;;;55.97;52.83;;;19.10;99.90;;;;;;5115644;27;20047;-61
2022/05/17 08:31:31;;;;;;;71.40;67.15;;;19.20;99.90;;;;;;5134546;27;20047;-61
2022/05/17 08:33:56;;;;;;;56.65;53.05;;;19.30;99.90;;;;;;5134608;27;20508;-60
2022/05/17 08:36:22;;;;;;;55.60;52.50;;;19.30;99.90;;;;;;5133977;27;20053;-61
2022/05/17 08:38:49;;;;;;;75.55;71.25;;;19.70;99.90;;;;;;5116278;27;20059;-61
2022/05/17 08:41:25;;;;;;;74.05;69.95;;;19.60;99.90;;;;;;5134990;27;20393;-61
2022/05/17 08:44:04;;;;;;;80.68;76.38;;;19.70;99.90;;;;;;5133685;27;20047;-61
2022/05/17 08:46:34;;;;;;;67.43;63.58;;;19.90;99.90;;;;;;5134511;27;20422;-61
2022/05/17 08:49:31;;;;;;;87.32;83.10;;;20.00;99.90;;;;;;5134265;27;20047;-61
2022/05/17 08:52:01;;;;;;;93.03;88.20;;;20.20;99.90;;;;;;5131056;27;20058;-61
2022/05/17 08:54:33;;;;;;;89.22;84.88;;;20.30;99.90;;;;;;5125830;27;20055;-61
2022/05/17 08:57:05;;;;;;;86.38;82.05;;;20.30;99.90;;;;;;5114048;28;20126;-61
2022/05/17 08:59:35;;;;;;;88.97;84.53;;;20.40;99.90;;;;;;5113956;27;20088;-61
2022/05/17 09:02:10;;;;;;;89.95;84.90;;;20.30;99.90;;;;;;5127050;27;20065;-59
2022/05/17 09:04:49;;;;;;;84.55;80.43;;;20.50;99.90;;;;;;5098158;27;20043;-59
2022/05/17 09:07:22;;;;;;;93.90;89.07;;;20.50;99.90;;;;;;5114941;27;20047;-59
2022/05/17 09:10:02;;;;;;;83.65;79.38;;;20.60;99.90;;;;;;5114363;27;20051;-59
2022/05/17 09:12:41;;;;;;;85.80;80.82;;;20.70;99.90;;;;;;5112971;27;20043;-59
2022/05/17 09:15:08;;;;;;;56.55;53.47;;;20.70;99.90;;;;;;5132932;27;20515;-59
2022/05/17 09:17:34;;;;;;;60.58;57.17;;;20.60;99.90;;;;;;5133359;27;20046;-59
2022/05/17 09:20:02;;;;;;;59.28;56.25;;;20.40;99.90;;;;;;5128502;27;20067;-59
2022/05/17 09:22:27;;;;;;;59.30;55.97;;;20.40;99.90;;;;;;5129271;27;20050;-59
2022/05/17 09:24:57;;;;;;;58.55;55.13;;;20.50;99.90;;;;;;5132469;27;20138;-59
2022/05/17 09:27:24;;;;;;;57.97;54.88;;;20.50;99.90;;;;;;5121701;27;20043;-58
2022/05/17 09:29:54;;;;;;;57.08;53.70;;;20.50;99.90;;;;;;5114607;27;20058;-58
2022/05/17 09:32:31;;;;;;;58.63;55.35;;;20.50;99.90;;;;;;5113926;27;20054;-59
2022/05/17 09:35:12;;;;;;;59.38;56.15;;;20.60;99.90;;;;;;5112611;28;20047;-59
2022/05/17 09:37:43;;;;;;;57.50;53.97;;;20.70;99.90;;;;;;5132624;27;20084;-59
2022/05/17 09:40:12;;;;;;;57.53;54.25;;;20.80;99.90;;;;;;5110888;28;20047;-58
2022/05/17 09:42:53;;;;;;;54.15;51.35;;;20.90;99.90;;;;;;5109148;28;20445;-59
2022/05/17 09:45:21;;;;;;;53.03;50.13;;;21.00;99.90;;;;;;5112478;28;20466;-58
2022/05/17 09:47:59;;;;;;;50.42;47.33;;;20.90;99.90;;;;;;5102542;28;20044;-59
2022/05/17 09:53:15;;;;;;;52.92;49.85;;;21.40;99.90;;;;;;5105889;28;20060;-59
2022/05/17 09:55:47;;;;;;;42.05;39.22;;;21.70;99.90;;;;;;5105974;28;20079;-59
2022/05/17 09:58:33;;;;;;;44.75;41.95;;;21.80;99.90;;;;;;5112492;28;20047;-59
2022/05/17 10:01:06;;;;;;;46.90;44.13;;;21.90;99.90;;;;;;5112170;28;20051;-59
2022/05/17 10:03:35;;;;;;;42.40;39.50;;;21.70;99.90;;;;;;5112556;28;20040;-59
2022/05/17 10:06:05;;;;;;;40.08;37.38;;;21.80;99.90;;;;;;5111567;28;20486;-59
2022/05/17 10:08:37;;;;;;;39.17;36.00;;;21.90;99.90;;;;;;5112170;28;20122;-59
2022/05/17 10:11:14;;;;;;;45.77;43.07;;;22.10;99.90;;;;;;5112372;28;20524;-58
2022/05/17 10:13:54;;;;;;;48.92;45.90;;;22.40;99.90;;;;;;5106781;28;20061;-59
2022/05/17 10:16:32;;;;;;;48.63;45.72;;;22.70;99.90;;;;;;5110825;28;20032;-59
2022/05/17 10:19:04;;;;;;;43.97;41.40;;;22.80;99.90;;;;;;5111366;28;20059;-61
2022/05/17 10:21:40;;;;;;;49.42;46.50;;;23.00;99.90;;;;;;5111184;28;20076;-61
2022/05/17 10:24:17;;;;;;;49.33;46.63;;;23.10;99.90;;;;;;5112273;28;20066;-61
2022/05/17 10:26:49;;;;;;;50.95;47.83;;;23.20;98.80;;;;;;5110807;28;20039;-62
2022/05/17 10:29:36;;;;;;;45.25;42.65;;;23.40;99.70;;;;;;5111023;28;20063;-62
2022/05/17 10:32:10;;;;;;;44.40;41.90;;;23.90;98.90;;;;;;5109596;28;20197;-62
2022/05/17 10:34:46;;;;;;;45.15;42.75;;;23.70;98.60;;;;;;5112092;28;20058;-62
2022/05/17 10:37:18;;;;;;;44.15;41.58;;;23.70;99.90;;;;;;5109767;28;20169;-62
2022/05/17 10:39:54;;;;;;;41.63;39.13;;;24.50;96.60;;;;;;5113002;27;20047;-62
2022/05/17 10:42:21;;;;;;;36.88;34.63;;;24.60;96.20;;;;;;5132338;28;20477;-62
2022/05/17 10:44:52;;;;;;;34.05;32.05;;;24.70;94.50;;;;;;5110988;28;20046;-62
2022/05/17 10:47:37;;;;;;;35.73;33.20;;;24.30;95.90;;;;;;5132085;27;20047;-62
2022/05/17 10:50:12;;;;;;;34.10;31.77;;;24.00;98.10;;;;;;5134596;27;20042;-62
2022/05/17 10:53:00;;;;;;;30.85;28.80;;;24.30;96.90;;;;;;5117712;27;20058;-62
2022/05/17 10:55:36;;;;;;;31.52;29.65;;;24.90;95.90;;;;;;5134550;27;20630;-62
2022/05/17 10:58:15;;;;;;;35.15;32.90;;;24.80;95.20;;;;;;5113899;27;20062;-62
2022/05/17 11:00:47;;;;;;;35.80;33.40;;;25.10;94.30;;;;;;5113648;27;20062;-62
2022/05/17 11:03:34;;;;;;;49.38;46.17;;;25.90;93.50;;;;;;5135848;27;20042;-62
2022/05/17 11:06:16;;;;;;;52.05;49.25;;;26.90;96.70;;;;;;5133469;27;20042;-62
2022/05/17 11:08:52;;;;;;;56.63;53.35;;;;;;;;;;5117774;27;20043;-62
2022/05/17 11:11:18;;;;;;;48.35;45.35;;;;;;;;;;5135590;27;20456;-62
2022/05/17 11:13:51;;;;;;;41.45;38.78;;;28.50;91.10;;;;;;5136158;27;20583;-62
2022/05/17 11:16:26;;;;;;;32.47;29.95;;;29.00;90.30;;;;;;5102537;28;20562;-62
2022/05/17 11:19:10;;;;;;;31.67;29.23;;;29.60;85.90;;;;;;5114711;28;20040;-62
2022/05/17 11:21:39;;;;;;;30.85;28.77;;;29.30;84.40;;;;;;5129236;27;20043;-62
2022/05/17 11:24:31;;;;;;;31.38;29.10;;;28.30;87.60;;;;;;5130226;27;20046;-62
2022/05/17 11:27:17;;;;;;;31.80;29.37;;;27.30;90.90;;;;;;5096040;28;20470;-62
2022/05/17 11:30:05;;;;;;;33.55;31.23;;;26.40;93.40;;;;;;5116011;27;20126;-62
2022/05/17 11:32:34;;;;;;;35.75;33.58;;;25.80;97.00;;;;;;5130978;27;20051;-62
2022/05/17 11:35:04;;;;;;;35.03;32.63;;;26.60;95.60;;;;;;5115078;28;20047;-62
2022/05/17 11:37:32;;;;;;;35.58;33.40;;;28.00;92.90;;;;;;5115461;28;20453;-62
2022/05/17 11:40:01;;;;;;;35.78;32.80;;;29.20;88.00;;;;;;5103179;27;20458;-62
2022/05/17 11:42:30;;;;;;;35.72;33.40;;;30.20;80.10;;;;;;5135061;27;20051;-62
2022/05/17 11:45:16;;;;;;;37.17;34.70;;;31.00;75.20;;;;;;5135735;27;20039;-62
2022/05/17 11:47:41;;;;;;;38.33;35.42;;;31.80;69.50;;;;;;5116224;27;20051;-62
2022/05/17 11:50:42;;;;;;;39.65;37.00;;;32.20;67.60;;;;;;5133970;27;20046;-63
2022/05/17 11:53:23;;;;;;;41.58;38.78;;;31.50;65.70;;;;;;5135159;27;20050;-62
2022/05/17 11:56:23;;;;;;;40.25;37.78;;;29.80;68.40;;;;;;5135399;27;20118;-63
2022/05/17 11:58:53;;;;;;;38.72;36.38;;;28.50;74.90;;;;;;5134444;27;20054;-62
2022/05/17 12:01:29;;;;;;;38.40;35.83;;;27.70;80.40;;;;;;5134687;27;20440;-62
2022/05/17 12:03:56;;;;;;;37.45;35.00;;;27.10;83.90;;;;;;5134883;27;20058;-62
2022/05/17 12:06:32;;;;;;;36.88;34.72;;;27.10;88.20;;;;;;5134346;27;20031;-62
2022/05/17 12:09:00;;;;;;;37.50;35.28;;;28.10;84.80;;;;;;5133343;27;20051;-62
2022/05/17 12:11:42;;;;;;;37.72;35.28;;;29.20;77.30;;;;;;5134434;27;20092;-62
2022/05/17 12:14:51;;;;;;;38.65;36.22;;;30.10;72.20;;;;;;5134776;27;20480;-62
2022/05/17 12:17:25;;;;;;;39.75;37.17;;;31.10;72.90;;;;;;5125097;27;20504;-63
2022/05/17 12:20:05;;;;;;;40.72;38.22;;;31.70;67.90;;;;;;5114707;27;20045;-63
2022/05/17 12:22:41;;;;;;;41.67;39.08;;;32.00;65.80;;;;;;5113161;27;20076;-63
2022/05/17 12:25:27;;;;;;;41.22;38.15;;;31.90;62.90;;;;;;5131230;27;20049;-63
2022/05/17 12:27:54;;;;;;;39.67;37.22;;;32.00;64.40;;;;;;5132520;27;20047;-63
2022/05/17 12:33:31;;;;;;;42.08;39.42;;;31.50;62.50;;;;;;5122395;27;20043;-63
2022/05/17 12:36:20;;;;;;;43.10;40.22;;;31.50;64.80;;;;;;5132906;27;20090;-63
2022/05/17 12:44:48;;;;;;;41.90;39.40;;;30.30;64.00;;;;;;5108241;27;20047;-63
2022/05/17 12:47:21;;;;;;;42.20;39.42;;;29.30;63.80;;;;;;5134041;27;20134;-63
2022/05/17 12:49:52;;;;;;;42.47;40.08;;;28.50;68.70;;;;;;5133590;27;20133;-63
2022/05/17 12:52:28;;;;;;;43.55;40.92;;;28.10;71.40;;;;;;5114991;27;20043;-63
2022/05/17 12:54:58;;;;;;;40.53;38.22;;;28.00;72.10;;;;;;5133781;27;20138;-63
2022/05/17 12:57:31;;;;;;;41.60;39.05;;;28.10;73.00;;;;;;5133664;27;20097;-63
2022/05/17 13:00:14;;;;;;;41.10;38.70;;;28.40;72.80;;;;;;5133879;27;20043;-63
2022/05/17 13:02:52;;;;;;;40.10;37.88;;;28.80;70.70;;;;;;5117072;27;20087;-63
2022/05/17 13:05:33;;;;;;;41.40;39.05;;;29.00;72.20;;;;;;5126318;27;20061;-63
2022/05/17 13:08:03;;;;;;;42.47;39.88;;;29.10;71.20;;;;;;5132315;27;20454;-63
2022/05/17 13:10:29;;;;;;;38.00;35.65;;;29.20;72.20;;;;;;5131631;27;20477;-63
2022/05/17 13:12:56;;;;;;;36.63;34.45;;;29.30;71.10;;;;;;5114675;27;20054;-63
2022/05/17 13:15:22;;;;;;;36.03;33.72;;;29.40;70.30;;;;;;5133629;27;20050;-63
2022/05/17 13:17:54;;;;;;;35.45;33.25;;;29.50;69.00;;;;;;5132666;27;20061;-63